Aérodrome :
LOGIN :

S'inscrire | Disclaimer

   EN    FR    IT 

 










Légende :    VFR   VFR Marginal   IFR   IFR Intensif   IFR Très Intensif
Visi : 
Plafond : 
>= 8 km
>= 3000ft
5 à 8 km
1000 à 3000 ft
1500m à 5 km
500 à 1000 ft
800 à 1500m
200 à 500 ft
< 800m
< 200 ft
Symboles :   Orages  Brouillard  Fortes neiges  Fortes précipitations  Vent > 20 kt
SIGMETs :   Divers  Orages  Givrage  Turbulence  Onde Orograph.  Cendres Volcan.






- Altitude de l'aérodrome : 17 ft
- Code IATA : CPH


EKCH - København - Kastrup (Copenhagen)

DERNIER METAR :
  • 141720Z AUTO 34002KT 9999 FEW024/// FEW100/// BKN140/// 11/06 Q1016 NOSIG

METARs EXPIRÉS :
  • 141650Z AUTO 36005KT 9999 BKN024/// BKN130/// BKN150/// 11/06 Q1016 NOSIG
  • 141620Z AUTO 33005KT 9999 SCT026/// BKN100/// BKN140/// 12/07 Q1016 NOSIG
  • 141550Z AUTO 34004KT 9999 BKN025/// BKN130/// 12/07 Q1015 NOSIG
  • 141520Z AUTO 31006KT 9999 BKN025/// 12/07 Q1015 NOSIG
  • 141450Z AUTO 33009KT 9999 BKN024/// 12/07 Q1015 NOSIG

TAF TAF EKCH
Valide du 14 à 18h jusqu'au 15 à 18h UTC


141710Z 1418/1518 10010KT 9999 SCT025
TEMPO 1422/1503 SHRA SCT060CB
TEMPO 1504/1512 12015G25KT



MET'MAP, la Météo Aéronautique d'un coup d'oeil ! - Copyright ORBIFLY Décembre 2007 - Disclaimer

ORBIFLY MET'MAP TEAM :

Programmation & Développement : Alexandra Zaïnal
Conception & Développement : Baudouin d'Aumeries
Co-Programmation & Développement : Marc-Olivier Méhu
Soutien technique & logistique : Manuel Goepfert

Contact : metmap@orbifly.com




SOURCES & CREDITS :

   NOAA